sensor_id;sensor_type;location;lat;lon;timestamp;pressure;altitude;pressure_sealevel;temperature;humidity
34742;BME280;20968;42.696;23.360;2023-05-19T00:01:16;95454.72;;;13.37;77.93
34742;BME280;20968;42.696;23.360;2023-05-19T00:04:12;95452.47;;;13.41;78.50
34742;BME280;20968;42.696;23.360;2023-05-19T00:06:39;95449.41;;;13.33;78.70
34742;BME280;20968;42.696;23.360;2023-05-19T00:09:08;95450.38;;;13.30;77.98
34742;BME280;20968;42.696;23.360;2023-05-19T00:11:35;95451.63;;;13.29;78.64
34742;BME280;20968;42.696;23.360;2023-05-19T00:14:02;95456.25;;;13.38;78.14
34742;BME280;20968;42.696;23.360;2023-05-19T00:16:29;95455.75;;;13.39;78.10
34742;BME280;20968;42.696;23.360;2023-05-19T00:19:00;95443.38;;;13.35;77.71
34742;BME280;20968;42.696;23.360;2023-05-19T00:21:27;95440.56;;;13.29;77.85
34742;BME280;20968;42.696;23.360;2023-05-19T00:23:58;95431.41;;;13.18;78.86
34742;BME280;20968;42.696;23.360;2023-05-19T00:26:25;95435.75;;;13.24;78.69
34742;BME280;20968;42.696;23.360;2023-05-19T00:28:52;95438.44;;;13.19;79.23
34742;BME280;20968;42.696;23.360;2023-05-19T00:31:23;95435.16;;;13.15;78.81
34742;BME280;20968;42.696;23.360;2023-05-19T00:33:48;95443.50;;;13.21;79.20
34742;BME280;20968;42.696;23.360;2023-05-19T00:36:18;95436.56;;;13.05;79.20
34742;BME280;20968;42.696;23.360;2023-05-19T00:38:44;95441.44;;;13.16;79.22
34742;BME280;20968;42.696;23.360;2023-05-19T00:41:10;95432.63;;;13.12;79.62
34742;BME280;20968;42.696;23.360;2023-05-19T00:43:36;95424.53;;;13.08;79.39
34742;BME280;20968;42.696;23.360;2023-05-19T00:46:01;95434.13;;;13.13;79.26
34742;BME280;20968;42.696;23.360;2023-05-19T00:48:27;95441.22;;;13.19;79.38
34742;BME280;20968;42.696;23.360;2023-05-19T00:50:55;95437.47;;;13.22;79.29
34742;BME280;20968;42.696;23.360;2023-05-19T00:53:27;95428.69;;;13.23;79.04
34742;BME280;20968;42.696;23.360;2023-05-19T00:55:53;95420.41;;;13.23;78.71
34742;BME280;20968;42.696;23.360;2023-05-19T00:58:24;95423.38;;;13.20;78.65
34742;BME280;20968;42.696;23.360;2023-05-19T01:00:57;95427.94;;;13.23;79.34
34742;BME280;20968;42.696;23.360;2023-05-19T01:03:34;95427.66;;;13.21;78.64
34742;BME280;20968;42.696;23.360;2023-05-19T01:06:01;95431.63;;;13.15;79.44
34742;BME280;20968;42.696;23.360;2023-05-19T01:08:46;95429.34;;;13.13;78.94
34742;BME280;20968;42.696;23.360;2023-05-19T01:11:29;95433.06;;;13.10;79.45
34742;BME280;20968;42.696;23.360;2023-05-19T01:13:57;95435.25;;;13.01;79.56
34742;BME280;20968;42.696;23.360;2023-05-19T01:16:30;95445.34;;;13.04;79.39
34742;BME280;20968;42.696;23.360;2023-05-19T01:30:42;95434.28;;;12.84;80.16
34742;BME280;20968;42.696;23.360;2023-05-19T01:33:16;95440.09;;;12.86;80.27
34742;BME280;20968;42.696;23.360;2023-05-19T01:35:42;95432.50;;;12.81;80.53
34742;BME280;20968;42.696;23.360;2023-05-19T01:38:11;95439.00;;;12.78;81.47
34742;BME280;20968;42.696;23.360;2023-05-19T01:40:39;95439.63;;;12.67;82.04
34742;BME280;20968;42.696;23.360;2023-05-19T01:43:20;95440.72;;;12.75;82.33
34742;BME280;20968;42.696;23.360;2023-05-19T01:45:47;95435.69;;;12.74;81.39
34742;BME280;20968;42.696;23.360;2023-05-19T01:48:13;95437.16;;;12.69;81.85
34742;BME280;20968;42.696;23.360;2023-05-19T01:50:44;95434.38;;;12.69;82.03
34742;BME280;20968;42.696;23.360;2023-05-19T01:53:14;95439.84;;;12.64;81.95
34742;BME280;20968;42.696;23.360;2023-05-19T01:55:47;95429.06;;;12.66;82.45
34742;BME280;20968;42.696;23.360;2023-05-19T02:01:42;95431.28;;;12.62;81.73
34742;BME280;20968;42.696;23.360;2023-05-19T02:04:46;95443.09;;;12.62;82.41
34742;BME280;20968;42.696;23.360;2023-05-19T02:10:04;95444.28;;;12.56;81.98
34742;BME280;20968;42.696;23.360;2023-05-19T02:12:35;95440.47;;;12.53;81.80
34742;BME280;20968;42.696;23.360;2023-05-19T02:15:14;95438.22;;;12.52;81.68
34742;BME280;20968;42.696;23.360;2023-05-19T02:17:42;95442.00;;;12.54;82.56
34742;BME280;20968;42.696;23.360;2023-05-19T02:20:16;95449.09;;;12.61;82.46
34742;BME280;20968;42.696;23.360;2023-05-19T02:22:43;95444.34;;;12.61;81.80
34742;BME280;20968;42.696;23.360;2023-05-19T02:25:11;95440.81;;;12.61;82.63
34742;BME280;20968;42.696;23.360;2023-05-19T02:27:37;95432.47;;;12.55;81.36
34742;BME280;20968;42.696;23.360;2023-05-19T02:30:04;95438.66;;;12.50;81.57
34742;BME280;20968;42.696;23.360;2023-05-19T02:32:34;95441.22;;;12.54;81.95
34742;BME280;20968;42.696;23.360;2023-05-19T02:35:07;95446.00;;;12.53;82.41
34742;BME280;20968;42.696;23.360;2023-05-19T02:37:34;95450.56;;;12.56;81.86
34742;BME280;20968;42.696;23.360;2023-05-19T02:39:59;95442.97;;;12.51;82.48
34742;BME280;20968;42.696;23.360;2023-05-19T02:42:25;95445.94;;;12.48;82.73
34742;BME280;20968;42.696;23.360;2023-05-19T02:44:51;95450.22;;;12.49;82.44
34742;BME280;20968;42.696;23.360;2023-05-19T02:47:16;95443.38;;;12.44;82.58
34742;BME280;20968;42.696;23.360;2023-05-19T02:49:43;95437.31;;;12.41;82.71
34742;BME280;20968;42.696;23.360;2023-05-19T02:52:24;95438.75;;;12.36;83.83
34742;BME280;20968;42.696;23.360;2023-05-19T02:54:49;95452.78;;;12.33;82.85
34742;BME280;20968;42.696;23.360;2023-05-19T02:57:15;95451.44;;;12.28;82.78
34742;BME280;20968;42.696;23.360;2023-05-19T03:00:00;95451.59;;;12.39;82.85
34742;BME280;20968;42.696;23.360;2023-05-19T03:02:26;95456.28;;;12.33;83.01
34742;BME280;20968;42.696;23.360;2023-05-19T03:04:55;95455.75;;;12.29;83.63
34742;BME280;20968;42.696;23.360;2023-05-19T03:07:20;95462.38;;;12.37;82.95
34742;BME280;20968;42.696;23.360;2023-05-19T03:09:50;95471.94;;;12.41;82.72
34742;BME280;20968;42.696;23.360;2023-05-19T03:12:34;95465.69;;;12.41;82.41
34742;BME280;20968;42.696;23.360;2023-05-19T03:15:23;95469.88;;;12.37;82.28
34742;BME280;20968;42.696;23.360;2023-05-19T03:17:54;95459.53;;;12.32;82.89
34742;BME280;20968;42.696;23.360;2023-05-19T03:20:21;95463.41;;;12.40;82.75
34742;BME280;20968;42.696;23.360;2023-05-19T03:29:55;95480.88;;;12.51;82.65
34742;BME280;20968;42.696;23.360;2023-05-19T03:32:33;95465.69;;;12.41;82.22
34742;BME280;20968;42.696;23.360;2023-05-19T03:35:07;95454.91;;;12.43;82.15
34742;BME280;20968;42.696;23.360;2023-05-19T03:37:33;95465.19;;;12.42;82.37
34742;BME280;20968;42.696;23.360;2023-05-19T03:40:32;95466.41;;;12.41;82.13
34742;BME280;20968;42.696;23.360;2023-05-19T03:46:20;95468.72;;;12.43;82.58
34742;BME280;20968;42.696;23.360;2023-05-19T03:52:26;95482.13;;;12.50;82.15
34742;BME280;20968;42.696;23.360;2023-05-19T03:54:52;95481.63;;;12.51;82.51
34742;BME280;20968;42.696;23.360;2023-05-19T03:57:18;95483.22;;;12.58;82.24
34742;BME280;20968;42.696;23.360;2023-05-19T03:59:44;95484.06;;;12.64;81.80
34742;BME280;20968;42.696;23.360;2023-05-19T04:02:10;95482.09;;;12.70;82.07
34742;BME280;20968;42.696;23.360;2023-05-19T04:04:35;95492.53;;;12.80;81.36
34742;BME280;20968;42.696;23.360;2023-05-19T04:07:02;95484.53;;;12.82;80.98
34742;BME280;20968;42.696;23.360;2023-05-19T04:09:28;95485.66;;;12.90;80.23
34742;BME280;20968;42.696;23.360;2023-05-19T04:11:56;95479.28;;;13.04;80.38
34742;BME280;20968;42.696;23.360;2023-05-19T04:14:22;95486.81;;;13.04;79.80
34742;BME280;20968;42.696;23.360;2023-05-19T04:17:09;95489.91;;;13.11;79.40
34742;BME280;20968;42.696;23.360;2023-05-19T04:19:34;95491.41;;;13.12;78.65
34742;BME280;20968;42.696;23.360;2023-05-19T04:22:01;95492.19;;;13.13;79.08
34742;BME280;20968;42.696;23.360;2023-05-19T04:24:26;95501.84;;;13.22;79.65
34742;BME280;20968;42.696;23.360;2023-05-19T04:26:52;95486.25;;;13.20;79.39
34742;BME280;20968;42.696;23.360;2023-05-19T04:29:22;95498.19;;;13.31;78.82
34742;BME280;20968;42.696;23.360;2023-05-19T04:31:48;95492.44;;;13.34;78.32
34742;BME280;20968;42.696;23.360;2023-05-19T04:34:16;95512.44;;;13.49;78.51
34742;BME280;20968;42.696;23.360;2023-05-19T04:36:43;95498.16;;;13.56;78.37
34742;BME280;20968;42.696;23.360;2023-05-19T04:39:09;95499.94;;;13.59;78.03
34742;BME280;20968;42.696;23.360;2023-05-19T04:41:36;95505.84;;;13.72;77.79
34742;BME280;20968;42.696;23.360;2023-05-19T04:44:08;95510.41;;;13.75;77.61
34742;BME280;20968;42.696;23.360;2023-05-19T04:46:34;95505.13;;;13.77;77.72
34742;BME280;20968;42.696;23.360;2023-05-19T04:49:00;95504.16;;;13.80;77.99
34742;BME280;20968;42.696;23.360;2023-05-19T04:51:27;95511.69;;;13.80;77.90
34742;BME280;20968;42.696;23.360;2023-05-19T04:53:55;95502.03;;;13.95;79.02
34742;BME280;20968;42.696;23.360;2023-05-19T04:56:21;95510.63;;;14.02;77.41
34742;BME280;20968;42.696;23.360;2023-05-19T04:58:47;95514.41;;;14.05;77.57
34742;BME280;20968;42.696;23.360;2023-05-19T05:01:13;95504.97;;;14.17;76.91
34742;BME280;20968;42.696;23.360;2023-05-19T05:03:40;95509.41;;;14.09;76.47
34742;BME280;20968;42.696;23.360;2023-05-19T05:06:06;95505.41;;;14.10;76.70
34742;BME280;20968;42.696;23.360;2023-05-19T05:08:31;95513.56;;;14.19;76.83
34742;BME280;20968;42.696;23.360;2023-05-19T05:10:57;95518.38;;;14.24;76.14
34742;BME280;20968;42.696;23.360;2023-05-19T05:13:23;95524.19;;;14.31;75.87
34742;BME280;20968;42.696;23.360;2023-05-19T05:15:49;95500.97;;;14.18;75.96
34742;BME280;20968;42.696;23.360;2023-05-19T05:18:16;95507.19;;;14.13;75.55
34742;BME280;20968;42.696;23.360;2023-05-19T05:20:43;95514.81;;;14.18;75.79
34742;BME280;20968;42.696;23.360;2023-05-19T05:23:12;95507.53;;;14.20;75.92
34742;BME280;20968;42.696;23.360;2023-05-19T05:25:41;95508.81;;;14.25;75.46
34742;BME280;20968;42.696;23.360;2023-05-19T05:28:11;95508.41;;;14.37;75.97
34742;BME280;20968;42.696;23.360;2023-05-19T05:30:43;95504.84;;;14.37;75.65
34742;BME280;20968;42.696;23.360;2023-05-19T05:38:35;95517.84;;;14.62;74.54
34742;BME280;20968;42.696;23.360;2023-05-19T05:41:00;95507.28;;;14.66;74.72
34742;BME280;20968;42.696;23.360;2023-05-19T05:43:27;95518.19;;;14.80;74.23
34742;BME280;20968;42.696;23.360;2023-05-19T05:45:53;95511.66;;;14.88;73.51
34742;BME280;20968;42.696;23.360;2023-05-19T05:48:19;95514.75;;;14.96;72.93
34742;BME280;20968;42.696;23.360;2023-05-19T05:50:45;95520.28;;;14.96;72.32
34742;BME280;20968;42.696;23.360;2023-05-19T05:53:17;95522.31;;;15.01;72.25
34742;BME280;20968;42.696;23.360;2023-05-19T05:55:45;95532.41;;;14.98;71.79
34742;BME280;20968;42.696;23.360;2023-05-19T05:58:18;95529.69;;;15.09;71.86
34742;BME280;20968;42.696;23.360;2023-05-19T06:00:46;95538.59;;;15.24;72.67
34742;BME280;20968;42.696;23.360;2023-05-19T06:03:13;95533.84;;;15.47;72.00
34742;BME280;20968;42.696;23.360;2023-05-19T06:05:38;95535.16;;;15.62;71.10
34742;BME280;20968;42.696;23.360;2023-05-19T06:08:08;95542.47;;;15.70;69.04
34742;BME280;20968;42.696;23.360;2023-05-19T06:10:33;95542.75;;;15.72;70.19
34742;BME280;20968;42.696;23.360;2023-05-19T06:13:00;95540.97;;;15.75;68.87
34742;BME280;20968;42.696;23.360;2023-05-19T06:15:26;95537.94;;;15.78;69.08
34742;BME280;20968;42.696;23.360;2023-05-19T06:17:51;95543.50;;;15.78;68.56
34742;BME280;20968;42.696;23.360;2023-05-19T06:20:18;95542.50;;;15.76;67.29
34742;BME280;20968;42.696;23.360;2023-05-19T06:22:46;95550.34;;;15.88;67.78
34742;BME280;20968;42.696;23.360;2023-05-19T06:25:12;95541.25;;;15.99;67.01
34742;BME280;20968;42.696;23.360;2023-05-19T06:27:38;95544.03;;;16.21;67.48
34742;BME280;20968;42.696;23.360;2023-05-19T06:30:03;95545.81;;;16.35;66.65
34742;BME280;20968;42.696;23.360;2023-05-19T06:32:32;95548.88;;;16.47;65.69
34742;BME280;20968;42.696;23.360;2023-05-19T06:34:58;95546.56;;;16.57;65.55
34742;BME280;20968;42.696;23.360;2023-05-19T06:37:23;95540.97;;;16.79;66.54
34742;BME280;20968;42.696;23.360;2023-05-19T06:39:51;95539.16;;;16.92;64.51
34742;BME280;20968;42.696;23.360;2023-05-19T06:42:20;95557.84;;;16.97;63.24
34742;BME280;20968;42.696;23.360;2023-05-19T06:44:51;95544.19;;;16.99;63.72
34742;BME280;20968;42.696;23.360;2023-05-19T06:47:19;95543.91;;;17.08;62.49
34742;BME280;20968;42.696;23.360;2023-05-19T06:49:45;95549.94;;;17.23;63.25
34742;BME280;20968;42.696;23.360;2023-05-19T06:52:14;95545.31;;;17.36;62.83
34742;BME280;20968;42.696;23.360;2023-05-19T06:54:40;95559.19;;;17.53;62.39
34742;BME280;20968;42.696;23.360;2023-05-19T06:57:05;95559.38;;;17.66;61.73
34742;BME280;20968;42.696;23.360;2023-05-19T06:59:32;95561.06;;;17.80;62.05
34742;BME280;20968;42.696;23.360;2023-05-19T07:01:57;95546.69;;;17.70;61.56
34742;BME280;20968;42.696;23.360;2023-05-19T07:04:24;95560.78;;;17.83;62.51
34742;BME280;20968;42.696;23.360;2023-05-19T07:06:50;95559.44;;;17.95;62.82
34742;BME280;20968;42.696;23.360;2023-05-19T07:09:15;95549.94;;;18.14;61.24
34742;BME280;20968;42.696;23.360;2023-05-19T07:11:41;95562.50;;;18.32;63.35
34742;BME280;20968;42.696;23.360;2023-05-19T07:14:06;95561.75;;;18.61;61.60
34742;BME280;20968;42.696;23.360;2023-05-19T07:16:32;95563.88;;;18.78;59.15
34742;BME280;20968;42.696;23.360;2023-05-19T07:18:57;95556.13;;;18.90;58.46
34742;BME280;20968;42.696;23.360;2023-05-19T07:21:23;95568.38;;;19.05;58.52
34742;BME280;20968;42.696;23.360;2023-05-19T07:23:48;95580.22;;;19.17;56.58
34742;BME280;20968;42.696;23.360;2023-05-19T07:26:14;95568.03;;;19.20;56.40
34742;BME280;20968;42.696;23.360;2023-05-19T07:28:39;95564.03;;;19.34;57.10
34742;BME280;20968;42.696;23.360;2023-05-19T07:31:06;95565.72;;;19.18;59.26
34742;BME280;20968;42.696;23.360;2023-05-19T07:33:32;95568.97;;;19.46;56.73
34742;BME280;20968;42.696;23.360;2023-05-19T07:36:02;95563.63;;;19.66;55.76
34742;BME280;20968;42.696;23.360;2023-05-19T07:38:31;95561.81;;;19.87;55.70
34742;BME280;20968;42.696;23.360;2023-05-19T07:41:18;95565.97;;;19.99;55.76
34742;BME280;20968;42.696;23.360;2023-05-19T07:44:06;95559.97;;;19.95;54.42
34742;BME280;20968;42.696;23.360;2023-05-19T07:46:52;95569.00;;;20.01;53.82
34742;BME280;20968;42.696;23.360;2023-05-19T07:49:18;95561.91;;;20.00;53.81
34742;BME280;20968;42.696;23.360;2023-05-19T07:52:08;95564.56;;;20.11;53.75
34742;BME280;20968;42.696;23.360;2023-05-19T07:54:34;95569.53;;;20.18;54.91
34742;BME280;20968;42.696;23.360;2023-05-19T07:56:59;95559.47;;;20.10;53.93
34742;BME280;20968;42.696;23.360;2023-05-19T07:59:25;95567.97;;;20.04;53.90
34742;BME280;20968;42.696;23.360;2023-05-19T08:02:09;95561.56;;;20.22;54.76
34742;BME280;20968;42.696;23.360;2023-05-19T08:04:49;95559.44;;;20.28;53.75
34742;BME280;20968;42.696;23.360;2023-05-19T08:07:22;95563.59;;;20.40;53.49
34742;BME280;20968;42.696;23.360;2023-05-19T08:09:49;95561.28;;;20.57;56.15
34742;BME280;20968;42.696;23.360;2023-05-19T08:12:21;95569.97;;;20.85;55.29
34742;BME280;20968;42.696;23.360;2023-05-19T08:15:06;95554.81;;;21.06;52.79
34742;BME280;20968;42.696;23.360;2023-05-19T08:17:38;95562.91;;;21.22;51.97
34742;BME280;20968;42.696;23.360;2023-05-19T08:20:27;95562.91;;;21.48;52.09
34742;BME280;20968;42.696;23.360;2023-05-19T08:22:54;95566.06;;;21.58;54.97
34742;BME280;20968;42.696;23.360;2023-05-19T08:25:56;95570.75;;;21.89;53.44
34742;BME280;20968;42.696;23.360;2023-05-19T08:28:31;95552.28;;;21.93;53.63
34742;BME280;20968;42.696;23.360;2023-05-19T08:31:00;95554.25;;;21.72;53.76
34742;BME280;20968;42.696;23.360;2023-05-19T08:36:26;95555.59;;;21.58;51.38
34742;BME280;20968;42.696;23.360;2023-05-19T08:39:42;95545.88;;;21.46;53.13
34742;BME280;20968;42.696;23.360;2023-05-19T08:42:15;95537.88;;;21.76;53.10
34742;BME280;20968;42.696;23.360;2023-05-19T08:45:25;95547.34;;;21.86;51.37
34742;BME280;20968;42.696;23.360;2023-05-19T08:51:49;95553.50;;;22.18;51.95
34742;BME280;20968;42.696;23.360;2023-05-19T08:54:45;95547.47;;;22.47;52.30
34742;BME280;20968;42.696;23.360;2023-05-19T09:07:21;95542.81;;;22.50;49.19
34742;BME280;20968;42.696;23.360;2023-05-19T09:09:50;95539.25;;;22.70;48.27
34742;BME280;20968;42.696;23.360;2023-05-19T09:12:30;95533.16;;;22.58;47.85
34742;BME280;20968;42.696;23.360;2023-05-19T09:18:56;95535.69;;;22.69;49.34
34742;BME280;20968;42.696;23.360;2023-05-19T09:21:29;95525.59;;;22.94;49.79
34742;BME280;20968;42.696;23.360;2023-05-19T09:23:56;95519.75;;;23.12;51.06
34742;BME280;20968;42.696;23.360;2023-05-19T09:26:22;95508.66;;;23.35;51.65
34742;BME280;20968;42.696;23.360;2023-05-19T09:28:47;95512.41;;;23.37;50.05
34742;BME280;20968;42.696;23.360;2023-05-19T09:31:13;95516.53;;;23.36;50.76
34742;BME280;20968;42.696;23.360;2023-05-19T09:33:40;95509.19;;;23.68;50.36
34742;BME280;20968;42.696;23.360;2023-05-19T09:36:09;95497.53;;;23.64;50.35
34742;BME280;20968;42.696;23.360;2023-05-19T09:38:38;95497.63;;;23.79;49.68
34742;BME280;20968;42.696;23.360;2023-05-19T09:41:06;95502.53;;;23.94;48.89
34742;BME280;20968;42.696;23.360;2023-05-19T09:43:34;95507.28;;;23.99;47.89
34742;BME280;20968;42.696;23.360;2023-05-19T09:46:25;95502.44;;;24.22;47.54
34742;BME280;20968;42.696;23.360;2023-05-19T09:48:57;95502.78;;;24.03;45.92
34742;BME280;20968;42.696;23.360;2023-05-19T09:51:22;95501.72;;;24.29;44.91
34742;BME280;20968;42.696;23.360;2023-05-19T09:53:48;95505.66;;;24.33;45.82
34742;BME280;20968;42.696;23.360;2023-05-19T09:56:14;95498.38;;;24.52;47.57
34742;BME280;20968;42.696;23.360;2023-05-19T09:58:44;95504.94;;;24.62;44.97
34742;BME280;20968;42.696;23.360;2023-05-19T10:01:09;95504.91;;;24.33;44.07
34742;BME280;20968;42.696;23.360;2023-05-19T10:03:36;95497.16;;;24.11;44.23
34742;BME280;20968;42.696;23.360;2023-05-19T10:10:23;95470.00;;;24.35;45.85
34742;BME280;20968;42.696;23.360;2023-05-19T10:12:51;95478.78;;;24.17;45.15
34742;BME280;20968;42.696;23.360;2023-05-19T10:15:30;95480.53;;;24.42;46.40
34742;BME280;20968;42.696;23.360;2023-05-19T10:18:12;95477.91;;;24.74;46.28
34742;BME280;20968;42.696;23.360;2023-05-19T10:20:46;95478.47;;;24.43;44.37
34742;BME280;20968;42.696;23.360;2023-05-19T10:26:35;95466.25;;;24.55;45.58
34742;BME280;20968;42.696;23.360;2023-05-19T10:29:01;95477.13;;;25.04;44.63
34742;BME280;20968;42.696;23.360;2023-05-19T10:31:35;95472.78;;;25.17;44.92
34742;BME280;20968;42.696;23.360;2023-05-19T10:43:48;95469.44;;;24.97;41.95
34742;BME280;20968;42.696;23.360;2023-05-19T10:46:31;95463.63;;;24.87;42.77
34742;BME280;20968;42.696;23.360;2023-05-19T10:48:56;95466.97;;;25.08;43.37
34742;BME280;20968;42.696;23.360;2023-05-19T10:51:32;95461.69;;;25.27;43.83
34742;BME280;20968;42.696;23.360;2023-05-19T10:54:01;95461.13;;;25.06;44.43
34742;BME280;20968;42.696;23.360;2023-05-19T10:56:31;95462.09;;;25.16;42.26
34742;BME280;20968;42.696;23.360;2023-05-19T10:59:35;95453.44;;;24.99;40.86
34742;BME280;20968;42.696;23.360;2023-05-19T11:02:08;95456.13;;;24.82;41.40
34742;BME280;20968;42.696;23.360;2023-05-19T11:04:47;95461.19;;;24.84;40.28
34742;BME280;20968;42.696;23.360;2023-05-19T11:07:16;95452.69;;;25.21;43.60
34742;BME280;20968;42.696;23.360;2023-05-19T11:09:51;95438.94;;;25.32;42.05
34742;BME280;20968;42.696;23.360;2023-05-19T11:12:20;95450.81;;;25.78;42.21
34742;BME280;20968;42.696;23.360;2023-05-19T11:14:56;95450.81;;;25.70;38.42
34742;BME280;20968;42.696;23.360;2023-05-19T11:17:53;95444.59;;;25.79;37.94
34742;BME280;20968;42.696;23.360;2023-05-19T11:20:23;95450.00;;;25.85;38.60
34742;BME280;20968;42.696;23.360;2023-05-19T11:23:08;95432.03;;;26.04;39.22
34742;BME280;20968;42.696;23.360;2023-05-19T11:25:48;95439.16;;;26.05;40.79
34742;BME280;20968;42.696;23.360;2023-05-19T11:28:19;95438.97;;;25.72;40.51
34742;BME280;20968;42.696;23.360;2023-05-19T11:30:46;95432.03;;;25.11;41.16
34742;BME280;20968;42.696;23.360;2023-05-19T11:33:14;95439.38;;;24.92;41.09
34742;BME280;20968;42.696;23.360;2023-05-19T11:35:47;95436.56;;;24.77;40.09
34742;BME280;20968;42.696;23.360;2023-05-19T11:38:15;95439.78;;;24.43;42.91
34742;BME280;20968;42.696;23.360;2023-05-19T11:40:42;95433.13;;;23.96;44.08
34742;BME280;20968;42.696;23.360;2023-05-19T11:43:08;95438.28;;;23.62;45.77
34742;BME280;20968;42.696;23.360;2023-05-19T11:45:34;95446.16;;;23.21;50.21
34742;BME280;20968;42.696;23.360;2023-05-19T11:48:00;95439.41;;;22.89;51.13
34742;BME280;20968;42.696;23.360;2023-05-19T11:50:27;95437.03;;;22.73;51.62
34742;BME280;20968;42.696;23.360;2023-05-19T11:52:54;95459.63;;;22.67;53.19
34742;BME280;20968;42.696;23.360;2023-05-19T11:55:41;95447.28;;;22.42;53.46
34742;BME280;20968;42.696;23.360;2023-05-19T11:58:18;95459.41;;;22.17;52.75
34742;BME280;20968;42.696;23.360;2023-05-19T12:00:49;95472.44;;;21.61;55.61
34742;BME280;20968;42.696;23.360;2023-05-19T12:03:20;95489.59;;;21.44;55.60
34742;BME280;20968;42.696;23.360;2023-05-19T12:05:47;95488.28;;;20.55;54.54
34742;BME280;20968;42.696;23.360;2023-05-19T12:08:15;95494.94;;;20.08;53.36
34742;BME280;20968;42.696;23.360;2023-05-19T12:11:05;95487.75;;;19.75;55.23
34742;BME280;20968;42.696;23.360;2023-05-19T12:13:34;95491.34;;;19.39;54.55
34742;BME280;20968;42.696;23.360;2023-05-19T12:16:03;95509.59;;;19.40;54.67
34742;BME280;20968;42.696;23.360;2023-05-19T12:18:35;95494.34;;;19.23;53.87
34742;BME280;20968;42.696;23.360;2023-05-19T12:21:01;95501.06;;;19.14;54.07
34742;BME280;20968;42.696;23.360;2023-05-19T12:23:31;95507.75;;;19.06;54.12
34742;BME280;20968;42.696;23.360;2023-05-19T12:26:03;95507.25;;;19.02;54.73
34742;BME280;20968;42.696;23.360;2023-05-19T12:28:35;95506.81;;;18.98;55.64
34742;BME280;20968;42.696;23.360;2023-05-19T12:31:01;95494.81;;;19.03;55.98
34742;BME280;20968;42.696;23.360;2023-05-19T12:33:27;95495.22;;;19.12;57.17
34742;BME280;20968;42.696;23.360;2023-05-19T12:35:53;95490.31;;;19.18;56.40
34742;BME280;20968;42.696;23.360;2023-05-19T12:38:23;95501.91;;;19.28;57.02
34742;BME280;20968;42.696;23.360;2023-05-19T12:40:49;95480.59;;;19.25;55.63
34742;BME280;20968;42.696;23.360;2023-05-19T12:43:29;95475.41;;;19.34;54.90
34742;BME280;20968;42.696;23.360;2023-05-19T12:46:10;95471.09;;;19.33;54.97
34742;BME280;20968;42.696;23.360;2023-05-19T12:48:43;95473.97;;;19.28;55.27
34742;BME280;20968;42.696;23.360;2023-05-19T12:51:09;95465.91;;;19.24;54.87
34742;BME280;20968;42.696;23.360;2023-05-19T12:53:36;95463.78;;;19.30;54.99
34742;BME280;20968;42.696;23.360;2023-05-19T12:56:20;95448.84;;;19.28;54.72
34742;BME280;20968;42.696;23.360;2023-05-19T12:58:54;95455.41;;;19.30;54.55
34742;BME280;20968;42.696;23.360;2023-05-19T13:01:22;95444.06;;;19.41;54.69
34742;BME280;20968;42.696;23.360;2023-05-19T13:03:48;95453.44;;;19.44;53.19
34742;BME280;20968;42.696;23.360;2023-05-19T13:06:15;95445.13;;;19.56;52.39
34742;BME280;20968;42.696;23.360;2023-05-19T13:09:14;95453.59;;;19.82;53.07
34742;BME280;20968;42.696;23.360;2023-05-19T13:11:46;95432.25;;;19.85;51.69
34742;BME280;20968;42.696;23.360;2023-05-19T13:14:27;95429.31;;;19.90;51.00
34742;BME280;20968;42.696;23.360;2023-05-19T13:17:15;95442.31;;;20.06;50.96
34742;BME280;20968;42.696;23.360;2023-05-19T13:19:40;95447.53;;;20.28;50.69
34742;BME280;20968;42.696;23.360;2023-05-19T13:22:06;95438.31;;;20.46;50.39
34742;BME280;20968;42.696;23.360;2023-05-19T13:24:32;95434.00;;;20.58;49.57
34742;BME280;20968;42.696;23.360;2023-05-19T13:26:58;95443.53;;;20.81;48.76
34742;BME280;20968;42.696;23.360;2023-05-19T13:29:29;95432.56;;;20.96;48.41
34742;BME280;20968;42.696;23.360;2023-05-19T13:32:00;95431.03;;;21.08;46.83
34742;BME280;20968;42.696;23.360;2023-05-19T13:34:28;95426.50;;;21.17;46.75
34742;BME280;20968;42.696;23.360;2023-05-19T13:37:10;95421.03;;;21.79;46.21
34742;BME280;20968;42.696;23.360;2023-05-19T13:49:25;95424.72;;;23.46;39.18
34742;BME280;20968;42.696;23.360;2023-05-19T13:52:06;95431.34;;;23.71;40.68
34742;BME280;20968;42.696;23.360;2023-05-19T13:57:53;95427.88;;;23.93;39.66
34742;BME280;20968;42.696;23.360;2023-05-19T14:00:19;95418.34;;;24.03;38.48
34742;BME280;20968;42.696;23.360;2023-05-19T14:02:45;95422.06;;;23.98;37.69
34742;BME280;20968;42.696;23.360;2023-05-19T14:05:10;95432.41;;;24.26;37.82
34742;BME280;20968;42.696;23.360;2023-05-19T14:07:36;95427.00;;;24.50;40.55
34742;BME280;20968;42.696;23.360;2023-05-19T14:10:03;95431.69;;;24.62;38.30
34742;BME280;20968;42.696;23.360;2023-05-19T14:12:30;95426.81;;;24.70;38.24
34742;BME280;20968;42.696;23.360;2023-05-19T14:14:55;95431.16;;;24.56;39.42
34742;BME280;20968;42.696;23.360;2023-05-19T14:17:21;95429.25;;;24.36;39.33
34742;BME280;20968;42.696;23.360;2023-05-19T14:19:46;95427.72;;;24.21;40.08
34742;BME280;20968;42.696;23.360;2023-05-19T14:22:12;95427.34;;;24.24;42.21
34742;BME280;20968;42.696;23.360;2023-05-19T14:24:37;95430.34;;;24.04;41.26
34742;BME280;20968;42.696;23.360;2023-05-19T14:27:03;95439.84;;;23.78;41.01
34742;BME280;20968;42.696;23.360;2023-05-19T14:29:28;95435.56;;;23.42;41.52
34742;BME280;20968;42.696;23.360;2023-05-19T14:31:57;95436.34;;;23.50;40.06
34742;BME280;20968;42.696;23.360;2023-05-19T14:34:23;95428.00;;;23.72;40.43
34742;BME280;20968;42.696;23.360;2023-05-19T14:36:48;95430.53;;;24.13;42.41